createdAt,value
2023-01-29T00:01:20.200Z,103152.47
2023-01-29T00:03:46.675Z,103140.22
2023-01-29T00:06:13.131Z,103128.47
2023-01-29T00:08:39.723Z,103138.28
2023-01-29T00:11:08.305Z,103132.97
2023-01-29T00:13:34.994Z,103130.34
2023-01-29T00:16:02.233Z,103124.31
2023-01-29T00:18:29.296Z,103117.56
2023-01-29T00:20:55.824Z,103107.56
2023-01-29T00:23:22.753Z,103104.03
2023-01-29T00:25:49.480Z,103091.00
2023-01-29T00:28:16.380Z,103106.88
2023-01-29T00:30:42.782Z,103088.44
2023-01-29T00:33:09.260Z,103084.19
2023-01-29T00:35:36.027Z,103097.59
2023-01-29T00:38:02.477Z,103088.66
2023-01-29T00:40:28.848Z,103098.47
2023-01-29T00:42:55.285Z,103106.25
2023-01-29T00:45:21.981Z,103102.50
2023-01-29T00:47:48.388Z,103104.41
2023-01-29T00:50:15.184Z,103096.53
2023-01-29T00:52:42.735Z,103089.88
2023-01-29T00:55:10.771Z,103082.91
2023-01-29T00:57:38.053Z,103097.47
2023-01-29T01:00:08.052Z,103083.50
2023-01-29T01:02:34.716Z,103078.19
2023-01-29T01:05:01.203Z,103079.88
2023-01-29T01:07:28.107Z,103065.63
2023-01-29T01:09:54.575Z,103080.69
2023-01-29T01:12:21.306Z,103061.66
2023-01-29T01:14:48.370Z,103056.31
2023-01-29T01:17:17.698Z,103066.41
2023-01-29T01:19:44.544Z,103063.25
2023-01-29T01:22:10.967Z,103069.19
2023-01-29T01:24:37.979Z,103060.72
2023-01-29T01:27:04.855Z,103059.22
2023-01-29T01:29:31.391Z,103069.84
2023-01-29T01:31:57.893Z,103067.25
2023-01-29T01:34:24.341Z,103067.59
2023-01-29T01:36:50.817Z,103068.50
2023-01-29T01:39:17.237Z,103089.66
2023-01-29T01:41:43.797Z,103080.16
2023-01-29T01:44:48.095Z,103088.81
2023-01-29T01:47:16.658Z,103077.91
2023-01-29T01:49:45.076Z,103077.03
2023-01-29T01:52:13.332Z,103082.47
2023-01-29T01:54:39.951Z,103073.59
2023-01-29T01:57:11.650Z,103088.72
2023-01-29T01:59:40.277Z,103066.56
2023-01-29T02:02:07.648Z,103078.13
2023-01-29T02:04:34.741Z,103078.47
2023-01-29T02:07:04.530Z,103074.81
2023-01-29T02:09:46.211Z,103081.13
2023-01-29T02:12:15.977Z,103077.06
2023-01-29T02:14:43.945Z,103049.03
2023-01-29T02:17:14.041Z,103075.19
2023-01-29T02:20:08.466Z,103074.19
2023-01-29T02:22:46.856Z,103074.25
2023-01-29T02:25:16.252Z,103072.88
2023-01-29T02:27:58.246Z,103072.06
2023-01-29T02:30:36.219Z,103074.53
2023-01-29T02:33:44.641Z,103073.16
2023-01-29T02:36:29.683Z,103077.72
2023-01-29T02:38:55.992Z,103078.44
2023-01-29T02:41:42.523Z,103085.75
2023-01-29T02:44:21.397Z,103095.50
2023-01-29T02:46:56.232Z,103093.00
2023-01-29T02:49:36.028Z,103097.00
2023-01-29T02:52:12.569Z,103095.22
2023-01-29T02:55:00.815Z,103099.13
2023-01-29T02:57:32.886Z,103088.56
2023-01-29T03:00:05.700Z,103075.34
2023-01-29T03:02:45.545Z,103091.44
2023-01-29T03:05:18.033Z,103096.13
2023-01-29T03:07:54.592Z,103087.19
2023-01-29T03:10:39.099Z,103086.38
2023-01-29T03:13:19.872Z,103086.25
2023-01-29T03:15:55.182Z,103083.63
2023-01-29T03:18:25.082Z,103085.59
2023-01-29T03:20:57.701Z,103069.00
2023-01-29T03:23:31.956Z,103070.78
2023-01-29T03:25:59.739Z,103080.69
2023-01-29T03:28:28.253Z,103070.19
2023-01-29T03:30:58.647Z,103049.00
2023-01-29T03:33:31.766Z,103056.91
2023-01-29T03:36:14.759Z,103047.84
2023-01-29T03:38:41.350Z,103052.25
2023-01-29T03:41:17.906Z,103039.06
2023-01-29T03:43:54.963Z,103037.19
2023-01-29T03:46:21.341Z,103035.56
2023-01-29T03:49:15.334Z,103033.88
2023-01-29T03:52:13.499Z,103035.75
2023-01-29T03:55:17.542Z,103033.06
2023-01-29T03:58:00.048Z,103034.72
2023-01-29T04:00:45.035Z,103032.47
2023-01-29T04:03:26.450Z,103023.81
2023-01-29T04:06:11.483Z,103022.88
2023-01-29T04:08:51.425Z,103023.88
2023-01-29T04:11:22.171Z,103011.63
2023-01-29T04:13:49.206Z,103007.22
2023-01-29T04:16:27.204Z,103006.44
2023-01-29T04:18:55.045Z,103004.34
2023-01-29T04:21:21.959Z,102997.56
2023-01-29T04:23:48.382Z,103008.97
2023-01-29T04:26:29.067Z,103016.16
2023-01-29T04:29:20.213Z,103014.06
2023-01-29T04:32:00.736Z,103006.28
2023-01-29T04:34:53.402Z,103000.38
2023-01-29T04:37:33.161Z,103004.69
2023-01-29T04:40:09.023Z,103000.88
2023-01-29T04:43:02.161Z,103002.03
2023-01-29T04:45:34.797Z,103000.34
2023-01-29T04:48:20.355Z,103004.13
2023-01-29T04:50:59.519Z,103000.09
2023-01-29T04:53:37.410Z,102988.97
2023-01-29T04:56:23.789Z,102986.25
2023-01-29T04:58:57.154Z,102989.88
2023-01-29T05:01:28.142Z,102978.50
2023-01-29T05:03:56.404Z,102986.59
2023-01-29T05:06:24.097Z,102968.03
2023-01-29T05:08:51.574Z,102970.91
2023-01-29T05:11:19.867Z,102964.41
2023-01-29T05:13:48.717Z,102968.13
2023-01-29T05:16:21.946Z,102976.66
2023-01-29T05:18:48.678Z,102971.06
2023-01-29T05:21:15.498Z,102976.31
2023-01-29T05:23:42.117Z,102972.75
2023-01-29T05:26:08.511Z,102979.09
2023-01-29T05:28:35.584Z,102974.97
2023-01-29T05:31:02.164Z,102984.63
2023-01-29T05:33:31.205Z,102990.63
2023-01-29T05:35:59.464Z,102987.41
2023-01-29T05:38:28.503Z,102989.03
2023-01-29T05:40:55.089Z,102967.00
2023-01-29T05:43:24.293Z,102981.06
2023-01-29T05:45:58.844Z,102981.25
2023-01-29T05:48:26.736Z,102989.13
2023-01-29T05:50:53.121Z,102985.66
2023-01-29T05:53:19.747Z,102976.84
2023-01-29T05:55:47.785Z,102995.38
2023-01-29T05:58:14.848Z,102981.34
2023-01-29T06:00:41.976Z,102980.22
2023-01-29T06:03:08.554Z,102966.00
2023-01-29T06:05:38.542Z,102968.53
2023-01-29T06:08:06.691Z,102957.09
2023-01-29T06:10:36.142Z,102955.41
2023-01-29T06:13:02.966Z,102952.69
2023-01-29T06:15:29.394Z,102949.03
2023-01-29T06:17:57.322Z,102940.13
2023-01-29T06:20:24.882Z,102948.28
2023-01-29T06:22:51.323Z,102956.91
2023-01-29T06:25:17.998Z,102933.88
2023-01-29T06:27:44.362Z,102930.44
2023-01-29T06:30:11.389Z,102933.88
2023-01-29T06:32:38.387Z,102940.13
2023-01-29T06:35:05.402Z,102928.50
2023-01-29T06:37:31.917Z,102903.84
2023-01-29T06:39:58.560Z,102932.88
2023-01-29T06:42:24.926Z,102930.97
2023-01-29T06:44:51.452Z,102933.63
2023-01-29T06:47:18.100Z,102932.50
2023-01-29T06:49:44.505Z,102941.41
2023-01-29T06:52:10.934Z,102947.81
2023-01-29T06:54:37.239Z,102934.78
2023-01-29T06:57:03.940Z,102923.34
2023-01-29T06:59:30.492Z,102924.88
2023-01-29T07:01:56.905Z,102932.16
2023-01-29T07:04:23.376Z,102934.78
2023-01-29T07:06:49.744Z,102930.31
2023-01-29T07:09:16.389Z,102927.53
2023-01-29T07:11:42.732Z,102920.47
2023-01-29T07:14:09.472Z,102915.19
2023-01-29T07:16:35.845Z,102937.22
2023-01-29T07:19:02.324Z,102923.88
2023-01-29T07:21:28.937Z,102945.28
2023-01-29T07:23:55.791Z,102931.03
2023-01-29T07:26:23.485Z,102932.81
2023-01-29T07:28:50.157Z,102933.63
2023-01-29T07:31:16.732Z,102935.53
2023-01-29T07:33:44.142Z,102930.13
2023-01-29T07:36:11.739Z,102928.31
2023-01-29T07:38:38.315Z,102936.91
2023-01-29T07:41:05.011Z,102941.56
2023-01-29T07:43:31.607Z,102924.00
2023-01-29T07:46:02.456Z,102929.09
2023-01-29T07:48:29.016Z,102917.50
2023-01-29T07:50:57.101Z,102912.16
2023-01-29T07:55:58.877Z,102910.31
2023-01-29T08:01:06.194Z,102895.06
2023-01-29T08:03:32.558Z,102882.69
2023-01-29T08:05:58.937Z,102883.53
2023-01-29T08:08:25.337Z,102901.88
2023-01-29T08:10:51.889Z,102886.94
2023-01-29T08:13:18.341Z,102870.84
2023-01-29T08:15:47.538Z,102871.00
2023-01-29T08:18:14.515Z,102897.13
2023-01-29T08:20:41.020Z,102871.69
2023-01-29T08:23:13.428Z,102892.75
2023-01-29T08:25:41.847Z,102888.31
2023-01-29T08:28:08.490Z,102900.69
2023-01-29T08:30:35.760Z,102895.19
2023-01-29T08:33:04.248Z,102889.88
2023-01-29T08:35:31.330Z,102884.63
2023-01-29T08:38:02.948Z,102881.06
2023-01-29T08:40:34.384Z,102875.78
2023-01-29T08:43:08.650Z,102876.66
2023-01-29T08:45:39.274Z,102863.34
2023-01-29T08:48:06.869Z,102863.91
2023-01-29T08:50:35.069Z,102860.19
2023-01-29T08:53:04.464Z,102861.91
2023-01-29T09:00:46.352Z,102849.88
2023-01-29T09:03:13.259Z,102854.50
2023-01-29T09:08:21.696Z,102850.97
2023-01-29T09:10:48.246Z,102855.34
2023-01-29T09:13:14.673Z,102845.69
2023-01-29T09:15:41.326Z,102867.56
2023-01-29T09:20:58.193Z,102861.13
2023-01-29T09:23:24.633Z,102843.28
2023-01-29T09:25:51.476Z,102852.09
2023-01-29T09:30:52.956Z,102856.28
2023-01-29T09:33:19.391Z,102853.38
2023-01-29T09:35:46.415Z,102855.22
2023-01-29T09:38:13.496Z,102863.13
2023-01-29T09:41:02.175Z,102843.50
2023-01-29T09:43:47.203Z,102848.56
2023-01-29T09:46:25.438Z,102850.34
2023-01-29T09:49:00.836Z,102842.91
2023-01-29T09:51:35.261Z,102857.66
2023-01-29T09:54:17.861Z,102847.78
2023-01-29T09:56:45.817Z,102856.03
2023-01-29T09:59:14.217Z,102844.56
2023-01-29T10:01:58.579Z,102832.75
2023-01-29T10:04:52.660Z,102840.81
2023-01-29T10:07:48.326Z,102846.41
2023-01-29T10:10:42.001Z,102846.91
2023-01-29T10:13:40.528Z,102856.66
2023-01-29T10:16:19.179Z,102843.19
2023-01-29T10:19:14.716Z,102842.00
2023-01-29T10:22:18.765Z,102838.00
2023-01-29T10:24:53.944Z,102840.66
2023-01-29T10:27:20.349Z,102833.97
2023-01-29T10:29:51.337Z,102835.38
2023-01-29T10:32:21.873Z,102822.09
2023-01-29T10:34:56.823Z,102827.84
2023-01-29T10:37:30.839Z,102809.25
2023-01-29T10:40:00.475Z,102811.09
2023-01-29T10:42:43.052Z,102813.06
2023-01-29T10:45:26.334Z,102803.91
2023-01-29T10:48:38.891Z,102787.38
2023-01-29T10:51:24.901Z,102789.41
2023-01-29T10:54:04.356Z,102787.72
2023-01-29T11:02:16.145Z,102766.91
2023-01-29T11:04:42.741Z,102760.06
2023-01-29T11:07:12.673Z,102763.72
2023-01-29T11:10:00.460Z,102760.84
2023-01-29T11:12:31.392Z,102757.97
2023-01-29T11:15:14.753Z,102753.81
2023-01-29T11:18:01.381Z,102756.75
2023-01-29T11:20:28.917Z,102748.38
2023-01-29T11:22:55.604Z,102760.13
2023-01-29T11:25:24.296Z,102752.34
2023-01-29T11:27:57.406Z,102751.13
2023-01-29T11:30:25.590Z,102748.38
2023-01-29T11:33:06.854Z,102733.94
2023-01-29T11:35:41.464Z,102744.59
2023-01-29T11:38:18.576Z,102740.25
2023-01-29T11:40:45.615Z,102739.25
2023-01-29T11:43:26.455Z,102738.00
2023-01-29T11:45:56.079Z,102735.25
2023-01-29T11:48:32.091Z,102727.38
2023-01-29T11:51:01.267Z,102714.97
2023-01-29T11:53:38.557Z,102714.22
2023-01-29T11:56:42.922Z,102721.63
2023-01-29T11:59:36.556Z,102710.84
2023-01-29T12:02:14.771Z,102704.72
2023-01-29T12:04:41.357Z,102706.50
2023-01-29T12:07:16.062Z,102691.00
2023-01-29T12:09:58.064Z,102693.53
2023-01-29T12:12:28.919Z,102697.38
2023-01-29T12:15:16.709Z,102693.59
2023-01-29T12:17:50.610Z,102685.00
2023-01-29T12:20:26.830Z,102685.00
2023-01-29T12:23:12.087Z,102674.13
2023-01-29T12:26:10.359Z,102654.34
2023-01-29T12:28:55.004Z,102654.47
2023-01-29T12:31:37.851Z,102650.56
2023-01-29T12:34:45.512Z,102655.78
2023-01-29T12:37:20.986Z,102649.78
2023-01-29T12:39:50.100Z,102634.25
2023-01-29T12:42:24.227Z,102630.41
2023-01-29T12:44:59.717Z,102626.59
2023-01-29T12:47:28.788Z,102624.59
2023-01-29T12:50:03.422Z,102618.66
2023-01-29T12:52:42.236Z,102608.50
2023-01-29T12:55:27.864Z,102608.50
2023-01-29T12:57:59.999Z,102596.53
2023-01-29T13:00:33.817Z,102587.81
2023-01-29T13:03:27.586Z,102572.69
2023-01-29T13:06:02.567Z,102568.84
2023-01-29T13:08:47.502Z,102556.94
2023-01-29T13:11:25.388Z,102548.63
2023-01-29T13:14:26.355Z,102547.81
2023-01-29T13:17:02.502Z,102535.63
2023-01-29T13:19:35.014Z,102525.97
2023-01-29T13:22:04.942Z,102523.56
2023-01-29T13:24:40.543Z,102517.91
2023-01-29T13:27:07.405Z,102507.41
2023-01-29T13:29:34.093Z,102500.03
2023-01-29T13:32:04.462Z,102492.66
2023-01-29T13:34:33.692Z,102490.34
2023-01-29T13:37:12.950Z,102489.75
2023-01-29T13:39:46.295Z,102490.19
2023-01-29T13:42:19.068Z,102484.63
2023-01-29T13:44:51.637Z,102493.31
2023-01-29T13:47:26.654Z,102486.03
2023-01-29T13:50:07.404Z,102482.69
2023-01-29T13:52:36.770Z,102472.94
2023-01-29T13:55:15.559Z,102480.84
2023-01-29T13:57:45.260Z,102478.66
2023-01-29T14:00:20.723Z,102470.41
2023-01-29T14:03:07.013Z,102478.66
2023-01-29T14:05:39.541Z,102473.44
2023-01-29T14:08:09.393Z,102478.72
2023-01-29T14:10:37.796Z,102472.94
2023-01-29T14:13:04.082Z,102470.75
2023-01-29T14:15:32.520Z,102466.03
2023-01-29T14:18:18.055Z,102467.81
2023-01-29T14:20:47.741Z,102462.22
2023-01-29T14:23:57.604Z,102455.34
2023-01-29T14:26:30.189Z,102461.97
2023-01-29T14:28:59.649Z,102459.13
2023-01-29T14:31:37.468Z,102461.16
2023-01-29T14:34:13.945Z,102459.41
2023-01-29T14:36:45.555Z,102457.69
2023-01-29T14:39:48.758Z,102447.38
2023-01-29T14:42:26.836Z,102439.34
2023-01-29T14:45:22.722Z,102440.13
2023-01-29T14:47:49.186Z,102442.00
2023-01-29T14:50:18.872Z,102450.88
2023-01-29T14:52:47.935Z,102436.63
2023-01-29T14:55:31.133Z,102432.88
2023-01-29T14:57:59.006Z,102428.59
2023-01-29T15:00:33.213Z,102427.38
2023-01-29T15:03:02.565Z,102427.94
2023-01-29T15:05:32.768Z,102421.56
2023-01-29T15:08:15.820Z,102415.25
2023-01-29T15:10:45.597Z,102410.63
2023-01-29T15:13:37.941Z,102404.09
2023-01-29T15:16:25.622Z,102403.63
2023-01-29T15:18:57.178Z,102400.91
2023-01-29T15:21:23.599Z,102400.97
2023-01-29T15:24:04.469Z,102398.72
2023-01-29T15:26:31.186Z,102395.88
2023-01-29T15:29:04.642Z,102394.94
2023-01-29T15:31:32.093Z,102400.53
2023-01-29T15:34:04.506Z,102392.41
2023-01-29T15:36:32.304Z,102395.38
2023-01-29T15:39:21.565Z,102390.88
2023-01-29T15:41:48.669Z,102384.72
2023-01-29T15:44:18.177Z,102391.09
2023-01-29T15:46:51.144Z,102386.38
2023-01-29T15:49:30.898Z,102383.91
2023-01-29T15:52:00.301Z,102369.06
2023-01-29T15:54:31.084Z,102368.75
2023-01-29T15:56:57.685Z,102376.72
2023-01-29T15:59:29.194Z,102376.81
2023-01-29T16:01:55.717Z,102383.19
2023-01-29T16:04:26.796Z,102373.47
2023-01-29T16:06:54.446Z,102380.50
2023-01-29T16:09:24.837Z,102378.75
2023-01-29T16:11:53.037Z,102379.78
2023-01-29T16:14:24.339Z,102387.44
2023-01-29T16:16:51.457Z,102383.84
2023-01-29T16:19:29.754Z,102381.81
2023-01-29T16:22:02.397Z,102386.06
2023-01-29T16:24:31.223Z,102378.16
2023-01-29T16:27:00.680Z,102384.63
2023-01-29T16:29:32.557Z,102381.22
2023-01-29T16:32:01.277Z,102381.94
2023-01-29T16:34:36.336Z,102378.78
2023-01-29T16:37:06.542Z,102386.69
2023-01-29T16:39:36.633Z,102376.19
2023-01-29T16:42:12.251Z,102377.47
2023-01-29T16:44:46.899Z,102361.53
2023-01-29T16:47:20.415Z,102359.41
2023-01-29T16:49:50.897Z,102364.91
2023-01-29T16:52:35.452Z,102369.53
2023-01-29T16:55:19.839Z,102365.03
2023-01-29T16:57:52.507Z,102356.25
2023-01-29T17:00:28.274Z,102345.59
2023-01-29T17:03:00.345Z,102338.13
2023-01-29T17:05:31.487Z,102349.09
2023-01-29T17:08:00.247Z,102351.84
2023-01-29T17:10:29.044Z,102342.78
2023-01-29T17:13:03.237Z,102347.53
2023-01-29T17:15:33.561Z,102345.81
2023-01-29T17:18:00.234Z,102343.06
2023-01-29T17:20:27.786Z,102340.59
2023-01-29T17:22:54.595Z,102339.78
2023-01-29T17:25:21.347Z,102337.25
2023-01-29T17:27:47.951Z,102335.47
2023-01-29T17:30:16.709Z,102343.66
2023-01-29T17:32:44.970Z,102340.00
2023-01-29T17:35:16.649Z,102334.50
2023-01-29T17:37:44.894Z,102332.66
2023-01-29T17:40:50.128Z,102326.31
2023-01-29T17:43:16.685Z,102332.81
2023-01-29T17:45:43.339Z,102319.34
2023-01-29T17:48:27.734Z,102316.66
2023-01-29T17:50:57.028Z,102313.81
2023-01-29T17:53:26.555Z,102297.66
2023-01-29T17:55:57.009Z,102298.66
2023-01-29T17:58:28.559Z,102300.28
2023-01-29T18:00:56.531Z,102288.59
2023-01-29T18:03:23.913Z,102288.59
2023-01-29T18:05:51.995Z,102290.16
2023-01-29T18:08:31.878Z,102291.19
2023-01-29T18:10:58.725Z,102276.69
2023-01-29T18:13:27.501Z,102271.41
2023-01-29T18:15:54.214Z,102278.63
2023-01-29T18:18:25.543Z,102274.97
2023-01-29T18:20:51.980Z,102274.88
2023-01-29T18:23:18.503Z,102275.81
2023-01-29T18:25:45.947Z,102264.91
2023-01-29T18:28:16.800Z,102270.19
2023-01-29T18:30:47.612Z,102268.25
2023-01-29T18:33:16.149Z,102251.03
2023-01-29T18:35:48.439Z,102243.25
2023-01-29T18:38:14.889Z,102229.94
2023-01-29T18:40:41.451Z,102229.72
2023-01-29T18:43:08.000Z,102229.06
2023-01-29T18:45:34.591Z,102221.69
2023-01-29T18:48:01.321Z,102213.88
2023-01-29T18:50:27.966Z,102199.41
2023-01-29T18:52:55.654Z,102196.50
2023-01-29T18:55:22.396Z,102187.00
2023-01-29T18:58:25.118Z,102193.09
2023-01-29T19:00:42.072Z,102183.41
2023-01-29T19:03:08.540Z,102178.03
2023-01-29T19:05:34.938Z,102180.56
2023-01-29T19:08:01.256Z,102175.34
2023-01-29T19:10:27.643Z,102170.13
2023-01-29T19:12:53.969Z,102158.25
2023-01-29T19:15:20.331Z,102152.97
2023-01-29T19:17:46.675Z,102149.78
2023-01-29T19:20:13.145Z,102145.28
2023-01-29T19:22:39.938Z,102133.00
2023-01-29T19:25:06.867Z,102137.31
2023-01-29T19:27:33.358Z,102141.03
2023-01-29T19:29:59.885Z,102153.19
2023-01-29T19:32:26.766Z,102146.38
2023-01-29T19:34:53.092Z,102142.91
2023-01-29T19:37:19.397Z,102139.16
2023-01-29T19:39:46.041Z,102141.69
2023-01-29T19:42:12.432Z,102142.25
2023-01-29T19:44:38.791Z,102129.50
2023-01-29T19:47:05.387Z,102140.31
2023-01-29T19:49:31.693Z,102129.44
2023-01-29T19:51:58.015Z,102141.75
2023-01-29T19:54:24.983Z,102128.91
2023-01-29T19:56:51.361Z,102115.97
2023-01-29T19:59:17.728Z,102114.22
2023-01-29T20:01:44.325Z,102118.19
2023-01-29T20:04:10.985Z,102104.00
2023-01-29T20:06:37.488Z,102121.75
2023-01-29T20:09:04.283Z,102125.16
2023-01-29T20:11:31.433Z,102120.56
2023-01-29T20:13:58.233Z,102115.00
2023-01-29T20:16:25.697Z,102103.13
2023-01-29T20:18:52.509Z,102107.78
2023-01-29T20:21:20.639Z,102110.13
2023-01-29T20:23:50.069Z,102107.69
2023-01-29T20:26:17.442Z,102113.97
2023-01-29T20:28:46.181Z,102109.50
2023-01-29T20:31:12.685Z,102112.00
2023-01-29T20:33:39.812Z,102107.44
2023-01-29T20:36:08.588Z,102101.53
2023-01-29T20:38:34.953Z,102097.09
2023-01-29T20:41:14.591Z,102083.66
2023-01-29T20:43:42.238Z,102105.13
2023-01-29T20:46:09.052Z,102122.53
2023-01-29T20:48:36.390Z,102108.56
2023-01-29T20:51:06.488Z,102097.09
2023-01-29T20:53:32.815Z,102099.16
2023-01-29T20:55:59.240Z,102087.28
2023-01-29T20:58:25.871Z,102102.66
2023-01-29T21:00:52.363Z,102112.28
2023-01-29T21:03:19.921Z,102097.00
2023-01-29T21:05:46.267Z,102083.69
2023-01-29T21:08:12.642Z,102088.88
2023-01-29T21:10:38.962Z,102088.00
2023-01-29T21:13:05.338Z,102077.59
2023-01-29T21:15:31.690Z,102089.75
2023-01-29T21:17:58.058Z,102088.25
2023-01-29T21:20:24.383Z,102088.88
2023-01-29T21:22:50.665Z,102092.34
2023-01-29T21:25:17.049Z,102093.91
2023-01-29T21:27:43.381Z,102088.78
2023-01-29T21:30:12.416Z,102095.75
2023-01-29T21:32:38.862Z,102107.75
2023-01-29T21:35:05.765Z,102088.91
2023-01-29T21:37:32.164Z,102086.06
2023-01-29T21:39:58.517Z,102074.44
2023-01-29T21:42:24.869Z,102066.81
2023-01-29T21:44:51.238Z,102085.03
2023-01-29T21:47:17.769Z,102078.56
2023-01-29T21:49:44.729Z,102056.88
2023-01-29T21:52:12.770Z,102030.59
2023-01-29T21:54:39.711Z,102037.84
2023-01-29T21:57:11.009Z,102011.03
2023-01-29T21:59:37.381Z,101998.31
2023-01-29T22:02:03.984Z,102002.97
2023-01-29T22:04:30.418Z,101978.47
2023-01-29T22:06:56.783Z,101963.16
2023-01-29T22:09:23.173Z,101961.47
2023-01-29T22:11:49.796Z,101957.00
2023-01-29T22:14:16.153Z,101952.03
2023-01-29T22:16:42.603Z,101942.50
2023-01-29T22:19:08.941Z,101975.06
2023-01-29T22:21:36.005Z,101982.88
2023-01-29T22:24:02.453Z,101980.41
2023-01-29T22:26:28.815Z,101959.16
2023-01-29T22:28:55.378Z,101951.38
2023-01-29T22:31:21.763Z,101955.19
2023-01-29T22:33:48.207Z,101943.56
2023-01-29T22:36:14.666Z,101958.81
2023-01-29T22:38:44.204Z,101950.94
2023-01-29T22:41:10.951Z,101941.41
2023-01-29T22:43:37.381Z,101939.34
2023-01-29T22:46:11.360Z,101932.16
2023-01-29T22:48:37.683Z,101933.34
2023-01-29T22:51:04.389Z,101915.06
2023-01-29T22:53:30.691Z,101912.75
2023-01-29T22:55:57.454Z,101909.72
2023-01-29T22:58:23.743Z,101900.13
2023-01-29T23:00:50.721Z,101898.13
2023-01-29T23:03:17.370Z,101887.53
2023-01-29T23:05:43.700Z,101918.41
2023-01-29T23:08:10.049Z,101923.34
2023-01-29T23:10:36.403Z,101925.06
2023-01-29T23:13:02.744Z,101900.78
2023-01-29T23:15:29.128Z,101898.06
2023-01-29T23:17:55.548Z,101899.50
2023-01-29T23:20:21.850Z,101896.56
2023-01-29T23:22:49.263Z,101894.72
2023-01-29T23:25:16.438Z,101893.00
2023-01-29T23:27:42.792Z,101887.13
2023-01-29T23:30:09.658Z,101881.84
2023-01-29T23:32:36.362Z,101880.69
2023-01-29T23:35:02.712Z,101864.41
2023-01-29T23:37:29.063Z,101843.66
2023-01-29T23:39:55.422Z,101838.72
2023-01-29T23:42:22.972Z,101830.66
2023-01-29T23:44:49.346Z,101840.16
2023-01-29T23:47:15.747Z,101830.84
2023-01-29T23:49:42.183Z,101829.69
2023-01-29T23:52:08.545Z,101845.38
2023-01-29T23:54:34.905Z,101839.13
2023-01-29T23:57:01.234Z,101836.25
2023-01-29T23:59:27.734Z,101827.13
